Terminal Aerodrome Forecast
Issued by NWS

Home | Current Version | Previous Version | Text Only | Print | Product List | Glossary On
Versions: 1 2 3 4 5 6 7 8 9 10 11 12 13 14 15
954
FTUS43 KGRB 181931 AAA
TAFAUW
TAF AMD
KAUW 181931Z 1820/1918 26010G17KT P6SM SKC
     FM182300 23005KT P6SM SCT250
     FM191000 20006KT P6SM SCT010 BKN150
      TEMPO 1910/1914 BKN006
     FM191400 21007G12KT P6SM BKN150=

USA.gov is the U.S. government's official web portal to all federal, state and local government web resources and services.